Time;durP1;ratioP1;P1;durP2;ratioP2;P2;SDS_P1;SDS_P2;PMS_P1;PMS_P2;Temp;Humidity;BMP_temperature;BMP_pressure;BME280_temperature;BME280_humidity;BME280_pressure;Samples;Min_cycle;Max_cycle;Signal;HPM_P1;HPM_P2
2022/09/20 00:00:04;;;;;;;5.00;1.05;;;9.90;99.90;;;;;;5083585;28;20036;-80
2022/09/20 00:02:30;;;;;;;9.75;1.17;;;9.80;99.90;;;;;;5071018;28;20056;-80
2022/09/20 00:04:56;;;;;;;11.55;1.30;;;9.70;99.90;;;;;;5089985;28;20099;-81
2022/09/20 00:07:21;;;;;;;7.80;1.45;;;9.70;99.90;;;;;;5067291;28;20036;-80
2022/09/20 00:09:47;;;;;;;10.05;1.23;;;9.60;99.90;;;;;;5078405;28;20051;-79
2022/09/20 00:12:13;;;;;;;8.63;1.48;;;9.60;99.90;;;;;;5071356;28;20044;-81
2022/09/20 00:14:38;;;;;;;6.25;1.13;;;9.60;99.90;;;;;;5105695;28;20047;-81
2022/09/20 00:17:04;;;;;;;7.88;0.95;;;9.60;99.90;;;;;;5071337;28;20054;-80
2022/09/20 00:19:30;;;;;;;6.95;1.45;;;9.50;99.90;;;;;;5071299;28;20105;-80
2022/09/20 00:21:55;;;;;;;8.05;1.10;;;9.50;99.90;;;;;;5074080;28;20044;-81
2022/09/20 00:24:21;;;;;;;11.75;1.27;;;9.70;99.90;;;;;;5079344;28;20419;-81
2022/09/20 00:26:47;;;;;;;7.35;1.30;;;9.50;99.90;;;;;;5083381;28;20041;-79
2022/09/20 00:29:12;;;;;;;7.85;1.75;;;9.40;99.90;;;;;;5082477;28;20918;-82
2022/09/20 00:31:41;;;;;;;12.75;1.73;;;10.80;99.90;;;;;;5074378;28;20130;-79
2022/09/20 00:36:53;;;;;;;4.65;1.15;;;9.40;99.90;;;;;;5071999;28;20426;-81
2022/09/20 00:39:18;;;;;;;11.77;1.65;;;9.40;99.90;;;;;;5068153;28;20089;-82
2022/09/20 00:41:44;;;;;;;6.30;1.10;;;8.50;99.90;;;;;;5089417;28;20031;-81
2022/09/20 00:44:46;;;;;;;7.93;1.10;;;9.30;99.90;;;;;;5090322;28;20447;-79
2022/09/20 00:47:39;;;;;;;5.97;1.10;;;9.30;99.90;;;;;;5087065;28;20044;-80
2022/09/20 00:50:23;;;;;;;7.82;1.63;;;9.20;99.90;;;;;;5056408;28;20052;-82
2022/09/20 00:52:53;;;;;;;;;;;9.20;99.90;;;;;;5089112;28;20040;-83
2022/09/20 00:55:20;;;;;;;5.38;1.13;;;9.20;99.90;;;;;;5085026;28;20002;-80
2022/09/20 00:57:46;;;;;;;6.65;0.90;;;10.70;99.90;;;;;;5088193;28;20044;-81
2022/09/20 01:00:13;;;;;;;5.10;0.77;;;9.20;99.90;;;;;;5087067;28;20063;-82
2022/09/20 01:02:54;;;;;;;9.68;1.05;;;9.20;99.90;;;;;;5088347;28;20036;-80
2022/09/20 01:05:20;;;;;;;6.47;1.17;;;9.10;99.90;;;;;;5084569;28;20040;-81
2022/09/20 01:07:49;;;;;;;7.85;1.23;;;9.80;99.90;;;;;;5074997;28;20048;-80
2022/09/20 01:10:14;;;;;;;5.60;0.93;;;10.10;99.90;;;;;;5079254;28;20040;-82
2022/09/20 01:12:43;;;;;;;6.32;1.08;;;9.10;99.90;;;;;;5087408;28;20071;-80
2022/09/20 01:15:09;;;;;;;7.20;1.30;;;9.40;99.90;;;;;;5081663;28;20040;-79
2022/09/20 01:17:40;;;;;;;6.88;0.93;;;9.00;99.90;;;;;;5081436;28;20052;-79
2022/09/20 01:20:12;;;;;;;5.25;1.17;;;9.00;99.90;;;;;;5077246;28;20515;-80
2022/09/20 01:23:03;;;;;;;8.35;0.85;;;9.00;99.90;;;;;;5081042;28;20048;-82
2022/09/20 01:26:00;;;;;;;6.68;0.57;;;8.50;99.90;;;;;;5056407;28;20052;-79
2022/09/20 01:28:27;;;;;;;6.68;1.13;;;9.00;99.90;;;;;;5079486;28;20389;-80
2022/09/20 01:31:08;;;;;;;5.22;0.82;;;9.10;99.90;;;;;;5076334;28;20048;-80
2022/09/20 01:33:50;;;;;;;6.20;0.90;;;9.00;99.90;;;;;;5082396;28;20040;-81
2022/09/20 01:36:55;;;;;;;5.38;0.70;;;9.00;99.90;;;;;;5072132;28;20043;-80
2022/09/20 01:40:00;;;;;;;6.60;0.98;;;9.00;99.90;;;;;;5084659;28;20044;-81
2022/09/20 01:42:36;;;;;;;4.57;0.68;;;9.00;99.90;;;;;;5083152;28;20047;-80
2022/09/20 01:45:06;;;;;;;7.05;0.60;;;8.90;99.90;;;;;;5079929;28;20279;-81
2022/09/20 01:47:51;;;;;;;8.15;1.30;;;8.90;99.90;;;;;;5077999;28;20039;-79
2022/09/20 01:50:47;;;;;;;8.20;0.98;;;8.90;99.90;;;;;;5085745;28;20119;-82
2022/09/20 01:53:32;;;;;;;3.83;0.82;;;8.90;99.90;;;;;;5079290;28;20048;-81
2022/09/20 01:56:36;;;;;;;6.97;0.68;;;8.90;99.90;;;;;;5083987;28;20035;-82
2022/09/20 01:59:20;;;;;;;5.55;1.30;;;8.90;99.90;;;;;;5083763;28;20453;-82
2022/09/20 02:01:52;;;;;;;4.55;0.82;;;8.80;99.90;;;;;;5082501;28;20048;-82
2022/09/20 02:04:42;;;;;;;5.38;0.85;;;8.80;99.90;;;;;;5116670;27;20086;-82
2022/09/20 02:07:25;;;;;;;4.82;0.60;;;8.80;99.90;;;;;;5079193;28;20048;-80
2022/09/20 02:10:10;;;;;;;6.63;1.33;;;8.80;99.90;;;;;;5079687;28;20130;-81
2022/09/20 02:12:53;;;;;;;5.75;1.90;;;8.80;99.90;;;;;;5072748;28;20565;-79
2022/09/20 02:15:25;;;;;;;6.63;1.75;;;8.80;99.90;;;;;;5071815;28;20571;-80
2022/09/20 02:18:16;;;;;;;7.53;2.20;;;8.80;99.90;;;;;;5069323;28;20426;-80
2022/09/20 02:21:04;;;;;;;7.93;1.17;;;8.80;99.90;;;;;;5058012;28;20040;-80
2022/09/20 02:23:53;;;;;;;5.65;0.88;;;8.70;99.90;;;;;;5070742;28;20032;-80
2022/09/20 02:26:31;;;;;;;6.00;1.50;;;8.70;99.90;;;;;;5072385;28;20047;-79
2022/09/20 02:29:15;;;;;;;8.05;1.13;;;8.70;99.90;;;;;;5071775;28;20048;-81
2022/09/20 02:31:47;;;;;;;5.95;0.90;;;8.70;99.90;;;;;;5077279;28;20036;-79
2022/09/20 02:34:45;;;;;;;5.78;0.63;;;8.70;99.90;;;;;;5089101;28;20048;-81
2022/09/20 02:37:24;;;;;;;7.53;1.27;;;8.60;99.90;;;;;;5082865;28;20475;-81
2022/09/20 02:40:14;;;;;;;2.92;0.65;;;8.60;99.90;;;;;;5082571;28;20106;-80
2022/09/20 02:43:01;;;;;;;8.43;1.13;;;8.60;99.90;;;;;;5068205;28;20036;-80
2022/09/20 02:45:53;;;;;;;3.70;0.90;;;8.70;99.90;;;;;;5084136;28;20058;-82
2022/09/20 02:48:26;;;;;;;7.43;1.00;;;8.70;99.90;;;;;;5061646;28;20051;-78
2022/09/20 02:51:03;;;;;;;8.50;1.37;;;8.70;99.90;;;;;;5083389;28;20133;-80
2022/09/20 02:53:39;;;;;;;6.63;1.35;;;8.70;99.90;;;;;;5082224;28;20089;-80
2022/09/20 02:56:23;;;;;;;7.97;1.90;;;8.70;99.90;;;;;;5081413;28;20051;-81
2022/09/20 02:59:00;;;;;;;9.65;1.42;;;8.70;99.90;;;;;;5087226;28;20077;-80
2022/09/20 03:01:31;;;;;;;6.65;1.33;;;8.60;99.90;;;;;;5085221;28;20044;-81
2022/09/20 03:04:12;;;;;;;10.30;1.05;;;8.70;99.90;;;;;;5081430;28;20549;-81
2022/09/20 03:07:02;;;;;;;9.05;0.90;;;8.70;99.90;;;;;;5074349;28;20086;-80
2022/09/20 03:09:42;;;;;;;5.35;0.68;;;8.80;99.90;;;;;;5080615;28;20044;-79
2022/09/20 03:12:29;;;;;;;9.68;1.10;;;8.80;99.90;;;;;;5074799;28;20258;-80
2022/09/20 03:14:58;;;;;;;14.65;1.15;;;8.90;99.90;;;;;;5084540;28;20040;-80
2022/09/20 03:17:42;;;;;;;7.80;1.00;;;8.90;99.90;;;;;;5071699;28;20048;-80
2022/09/20 03:20:26;;;;;;;7.35;1.13;;;8.90;99.90;;;;;;5070186;28;20049;-80
2022/09/20 03:23:14;;;;;;;5.43;1.00;;;8.90;99.90;;;;;;5073742;28;20116;-82
2022/09/20 03:25:52;;;;;;;7.60;1.20;;;8.90;99.90;;;;;;5069364;28;20052;-80
2022/09/20 03:28:52;;;;;;;5.90;1.17;;;8.90;99.90;;;;;;5059693;28;20673;-81
2022/09/20 03:31:42;;;;;;;8.52;0.73;;;9.00;99.90;;;;;;5091509;28;20112;-80
2022/09/20 03:34:14;;;;;;;7.55;1.10;;;9.00;99.90;;;;;;5070140;28;20053;-80
2022/09/20 03:37:17;;;;;;;9.20;1.13;;;8.90;99.90;;;;;;5074448;28;20579;-82
2022/09/20 03:40:25;;;;;;;5.20;1.20;;;9.10;99.90;;;;;;5073020;28;20147;-82
2022/09/20 03:42:53;;;;;;;3.53;0.68;;;9.10;99.90;;;;;;5018910;28;20048;-80
2022/09/20 03:45:27;;;;;;;6.72;1.23;;;9.10;99.90;;;;;;5065457;28;20044;-80
2022/09/20 03:48:06;;;;;;;5.68;1.23;;;9.20;99.90;;;;;;5078140;28;20527;-80
2022/09/20 03:50:54;;;;;;;5.43;0.73;;;9.20;99.90;;;;;;5072907;28;20513;-80
2022/09/20 03:53:50;;;;;;;8.25;1.17;;;9.30;99.90;;;;;;5061044;28;20048;-81
2022/09/20 03:56:42;;;;;;;6.47;0.85;;;9.30;99.90;;;;;;5116222;27;20044;-80
2022/09/20 03:59:29;;;;;;;6.00;0.85;;;9.30;99.90;;;;;;5075546;28;20406;-81
2022/09/20 04:02:28;;;;;;;8.23;0.85;;;9.40;99.90;;;;;;5064265;28;20046;-79
2022/09/20 04:05:01;;;;;;;7.22;1.15;;;9.30;99.90;;;;;;5077458;28;20063;-79
2022/09/20 04:07:56;;;;;;;4.43;0.93;;;9.30;99.90;;;;;;5081215;28;20048;-80
2022/09/20 04:10:41;;;;;;;3.95;0.40;;;9.40;99.90;;;;;;5083803;28;20044;-80
2022/09/20 04:13:33;;;;;;;7.55;0.73;;;9.40;99.90;;;;;;5070448;28;20052;-79
2022/09/20 04:16:36;;;;;;;4.93;0.70;;;9.40;99.90;;;;;;5076455;28;20075;-82
2022/09/20 04:19:16;;;;;;;4.85;1.13;;;9.40;99.90;;;;;;5112515;27;20495;-80
2022/09/20 04:21:55;;;;;;;6.55;0.80;;;9.40;99.90;;;;;;5059013;28;20146;-81
2022/09/20 04:24:28;;;;;;;4.70;0.70;;;9.40;99.90;;;;;;5085181;28;20494;-79
2022/09/20 04:27:28;;;;;;;5.35;1.23;;;9.40;99.90;;;;;;5089622;28;20101;-79
2022/09/20 04:30:17;;;;;;;5.80;0.60;;;9.40;99.90;;;;;;5078696;28;20115;-79
2022/09/20 04:32:54;;;;;;;4.85;0.50;;;9.40;99.90;;;;;;5061122;28;20121;-80
2022/09/20 04:38:20;;;;;;;7.35;0.80;;;10.10;99.90;;;;;;5082972;28;20040;-79
2022/09/20 04:41:07;;;;;;;5.47;0.70;;;9.40;99.90;;;;;;5085856;28;20510;-81
2022/09/20 04:43:54;;;;;;;4.05;0.85;;;9.60;99.90;;;;;;5064143;28;20090;-81
2022/09/20 04:46:52;;;;;;;3.65;0.75;;;9.50;99.90;;;;;;5062122;28;20071;-80
2022/09/20 04:49:32;;;;;;;7.00;0.68;;;10.70;99.90;;;;;;5088849;28;20044;-81
2022/09/20 04:52:30;;;;;;;5.38;0.55;;;9.50;99.90;;;;;;5088563;28;20048;-81
2022/09/20 04:55:01;;;;;;;4.28;0.65;;;9.50;99.90;;;;;;5083912;28;20124;-80
2022/09/20 04:58:03;;;;;;;5.75;0.85;;;9.50;99.90;;;;;;5086867;28;20641;-79
2022/09/20 05:00:56;;;;;;;4.80;0.60;;;9.50;99.90;;;;;;5051150;28;20053;-80
2022/09/20 05:03:47;;;;;;;5.10;1.08;;;9.50;99.90;;;;;;5079933;28;20504;-80
2022/09/20 05:06:24;;;;;;;7.63;0.98;;;9.50;99.90;;;;;;5083830;28;20044;-81
2022/09/20 05:09:28;;;;;;;8.88;1.98;;;9.50;99.90;;;;;;5084845;28;20044;-79
2022/09/20 05:12:30;;;;;;;5.45;0.85;;;9.60;99.90;;;;;;5038787;28;20110;-80
2022/09/20 05:15:36;;;;;;;1.38;0.60;;;9.60;99.90;;;;;;4380067;27;10000719;-81
2022/09/20 05:18:41;;;;;;;7.82;1.30;;;9.60;99.90;;;;;;5068062;28;20423;-81
2022/09/20 05:21:13;;;;;;;6.45;1.30;;;9.60;99.90;;;;;;5081026;28;20052;-81
2022/09/20 05:24:12;;;;;;;2.65;0.63;;;9.70;99.90;;;;;;5085930;28;20144;-80
2022/09/20 05:26:59;;;;;;;4.93;0.68;;;9.70;99.90;;;;;;5081224;28;20044;-80
2022/09/20 05:29:31;;;;;;;5.57;0.77;;;9.70;99.90;;;;;;5075336;28;20049;-79
2022/09/20 05:32:18;;;;;;;6.28;0.80;;;9.80;99.90;;;;;;5065757;28;20128;-80
2022/09/20 05:35:12;;;;;;;5.00;0.70;;;9.80;99.90;;;;;;5080205;28;20116;-81
2022/09/20 05:37:59;;;;;;;10.23;3.70;;;9.90;99.90;;;;;;5081378;28;20048;-80
2022/09/20 05:40:30;;;;;;;8.23;1.05;;;9.90;99.90;;;;;;5080916;28;20101;-81
2022/09/20 05:43:19;;;;;;;6.00;1.10;;;10.00;99.90;;;;;;5060292;28;20048;-81
2022/09/20 05:45:57;;;;;;;6.82;1.08;;;10.00;99.90;;;;;;5085509;28;20403;-82
2022/09/20 05:48:32;;;;;;;7.85;1.35;;;10.00;99.90;;;;;;5061685;28;20048;-81
2022/09/20 05:51:32;;;;;;;6.25;0.80;;;10.00;99.90;;;;;;5073695;28;20178;-82
2022/09/20 05:54:04;;;;;;;6.30;1.27;;;10.10;99.90;;;;;;5069812;28;20044;-81
2022/09/20 05:57:03;;;;;;;7.75;2.25;;;10.10;99.90;;;;;;5081962;28;20043;-81
2022/09/20 05:59:48;;;;;;;10.30;4.10;;;10.10;99.90;;;;;;5079381;28;20076;-82
2022/09/20 06:02:16;;;;;;;;;;;10.10;99.90;;;;;;5082942;28;20059;-80
2022/09/20 06:04:49;;;;;;;10.13;1.45;;;10.10;99.90;;;;;;5064222;28;19920;-81
2022/09/20 06:07:42;;;;;;;4.93;1.02;;;10.10;99.90;;;;;;5059739;28;20671;-84
2022/09/20 06:10:32;;;;;;;4.25;1.10;;;10.10;99.90;;;;;;5083372;28;20071;-82
2022/09/20 06:13:19;;;;;;;5.75;1.02;;;10.10;99.90;;;;;;5105316;27;20105;-82
2022/09/20 06:15:58;;;;;;;6.85;0.80;;;10.10;99.90;;;;;;5057397;28;20468;-81
2022/09/20 06:18:30;;;;;;;2.70;0.80;;;10.10;99.90;;;;;;5082853;28;20072;-81
2022/09/20 06:21:14;;;;;;;5.15;1.25;;;10.10;99.90;;;;;;5077549;28;20419;-82
2022/09/20 06:23:40;;;;;;;4.38;1.02;;;10.10;99.90;;;;;;5080768;28;20380;-81
2022/09/20 06:26:26;;;;;;;11.20;1.38;;;10.20;99.90;;;;;;5103535;27;20040;-83
2022/09/20 06:28:59;;;;;;;12.70;1.02;;;10.20;99.90;;;;;;5079948;28;20126;-82
2022/09/20 06:31:26;;;;;;;7.45;1.00;;;10.20;99.90;;;;;;5072372;28;20499;-81
2022/09/20 06:33:54;;;;;;;5.93;1.05;;;10.30;99.90;;;;;;5083320;28;20097;-82
2022/09/20 06:42:19;;;;;;;5.50;0.98;;;10.30;99.90;;;;;;5079232;28;20486;-81
2022/09/20 06:44:45;;;;;;;5.78;1.20;;;11.60;99.90;;;;;;5078771;28;20134;-84
2022/09/20 06:47:11;;;;;;;8.95;1.58;;;10.40;99.90;;;;;;5079923;28;20036;-83
2022/09/20 06:49:40;;;;;;;4.20;1.20;;;10.30;99.90;;;;;;5073346;28;20362;-84
2022/09/20 06:52:07;;;;;;;3.70;0.98;;;10.40;99.90;;;;;;5077578;28;20050;-83
2022/09/20 06:54:33;;;;;;;3.25;0.98;;;10.40;99.90;;;;;;5080522;28;20610;-83
2022/09/20 06:57:03;;;;;;;4.97;0.60;;;10.40;99.90;;;;;;5113245;27;20431;-82
2022/09/20 06:59:28;;;;;;;2.97;0.68;;;10.50;99.90;;;;;;5073069;28;20071;-83
2022/09/20 07:01:54;;;;;;;5.32;0.50;;;10.90;99.90;;;;;;5077167;28;20075;-83
2022/09/20 07:04:21;;;;;;;4.90;1.10;;;11.10;99.90;;;;;;5078473;28;20559;-83
2022/09/20 07:06:50;;;;;;;2.85;0.75;;;10.50;99.90;;;;;;5077955;28;20059;-84
2022/09/20 07:09:16;;;;;;;8.55;0.70;;;10.60;99.90;;;;;;5066667;28;20044;-83
2022/09/20 07:11:43;;;;;;;5.35;0.80;;;11.50;99.90;;;;;;5087966;28;20044;-84
2022/09/20 07:14:09;;;;;;;4.18;0.60;;;10.70;99.90;;;;;;5076419;28;20549;-83
2022/09/20 07:16:35;;;;;;;4.18;0.60;;;10.70;99.90;;;;;;5084818;28;20044;-82
2022/09/20 07:19:02;;;;;;;8.20;1.60;;;12.10;99.90;;;;;;5067253;28;20119;-83
2022/09/20 07:21:28;;;;;;;7.90;1.52;;;10.80;99.90;;;;;;5078970;28;20040;-82
2022/09/20 07:23:53;;;;;;;6.65;1.08;;;10.80;99.90;;;;;;5082535;28;20039;-78
2022/09/20 07:26:24;;;;;;;9.45;1.42;;;10.90;99.90;;;;;;5074307;28;20070;-81
2022/09/20 07:29:00;;;;;;;13.93;1.70;;;10.90;99.90;;;;;;5087512;28;20048;-80
2022/09/20 07:31:28;;;;;;;5.95;1.00;;;11.40;99.90;;;;;;5085410;28;20093;-79
2022/09/20 07:34:05;;;;;;;3.85;0.80;;;11.00;99.90;;;;;;5084343;28;20043;-79
2022/09/20 07:36:31;;;;;;;6.07;1.00;;;12.20;99.90;;;;;;5077566;28;20047;-81
2022/09/20 07:38:56;;;;;;;7.28;1.02;;;11.00;99.90;;;;;;5086498;28;20044;-82
2022/09/20 07:41:22;;;;;;;5.88;1.08;;;11.00;99.90;;;;;;5084576;28;20028;-82
2022/09/20 07:43:50;;;;;;;8.93;0.98;;;11.00;99.90;;;;;;5068835;28;20040;-81
2022/09/20 07:46:16;;;;;;;6.57;0.93;;;11.00;99.90;;;;;;5064601;28;20036;-81
2022/09/20 07:48:42;;;;;;;7.80;1.40;;;11.10;99.90;;;;;;5110826;27;20110;-81
2022/09/20 07:51:11;;;;;;;7.35;0.95;;;11.10;99.90;;;;;;5083976;28;20438;-80
2022/09/20 07:53:38;;;;;;;6.65;1.20;;;11.10;99.90;;;;;;5084838;28;20035;-81
2022/09/20 07:56:14;;;;;;;7.32;1.40;;;11.10;99.90;;;;;;5086898;28;20105;-83
2022/09/20 07:58:41;;;;;;;5.90;1.30;;;11.10;99.90;;;;;;5085151;28;20092;-81
2022/09/20 08:01:22;;;;;;;14.73;4.25;;;11.20;99.90;;;;;;5083631;28;20061;-81
2022/09/20 08:03:47;;;;;;;9.25;2.22;;;11.20;99.90;;;;;;5086843;28;20684;-82
2022/09/20 08:06:14;;;;;;;11.95;1.85;;;11.20;99.90;;;;;;5068087;28;20479;-81
2022/09/20 08:08:44;;;;;;;7.20;0.80;;;11.30;99.90;;;;;;5082808;28;20048;-81
2022/09/20 08:11:14;;;;;;;5.43;1.08;;;11.40;99.90;;;;;;5086658;28;20441;-81
2022/09/20 08:13:51;;;;;;;6.55;0.68;;;11.40;99.90;;;;;;5085731;28;20462;-81
2022/09/20 08:16:18;;;;;;;7.07;0.75;;;11.40;99.90;;;;;;5080905;28;20033;-81
2022/09/20 08:18:45;;;;;;;6.78;0.60;;;12.20;99.90;;;;;;5084536;28;20116;-81
2022/09/20 08:21:12;;;;;;;5.72;1.13;;;12.50;99.90;;;;;;5084142;28;20146;-82
2022/09/20 08:23:42;;;;;;;3.92;0.60;;;11.50;99.90;;;;;;5087528;28;20096;-82
2022/09/20 08:26:13;;;;;;;5.82;0.68;;;11.50;99.90;;;;;;5082731;28;20438;-82
2022/09/20 08:28:41;;;;;;;4.82;0.75;;;11.60;99.90;;;;;;5069174;28;20510;-82
2022/09/20 08:31:14;;;;;;;6.68;0.60;;;11.60;99.90;;;;;;5068664;28;20047;-81
2022/09/20 08:33:41;;;;;;;6.35;1.15;;;11.70;99.90;;;;;;5067099;28;20044;-82
2022/09/20 08:36:11;;;;;;;7.93;0.73;;;11.80;99.90;;;;;;5085613;28;20047;-82
2022/09/20 08:38:37;;;;;;;11.73;0.75;;;11.80;99.90;;;;;;5086638;28;20643;-80
2022/09/20 08:41:17;;;;;;;7.65;0.75;;;11.90;99.90;;;;;;5079056;28;20119;-83
2022/09/20 08:43:48;;;;;;;4.30;1.02;;;12.70;99.90;;;;;;5083104;28;20069;-85
2022/09/20 08:46:17;;;;;;;11.57;0.90;;;11.90;99.90;;;;;;5081688;28;20051;-83
2022/09/20 08:48:44;;;;;;;7.20;0.63;;;13.50;99.90;;;;;;5085837;28;20048;-82
2022/09/20 08:51:17;;;;;;;3.17;1.00;;;12.00;99.90;;;;;;5083968;28;20043;-81
2022/09/20 08:53:50;;;;;;;9.05;0.88;;;12.10;99.90;;;;;;5084203;28;20062;-81
2022/09/20 08:56:16;;;;;;;8.15;0.73;;;12.20;99.90;;;;;;5087007;28;20511;-82
2022/09/20 08:58:43;;;;;;;10.07;1.00;;;12.30;99.90;;;;;;5081880;28;20094;-82
2022/09/20 09:01:22;;;;;;;8.77;0.98;;;12.40;99.90;;;;;;5081273;28;20041;-81
2022/09/20 09:03:53;;;;;;;2.35;0.40;;;13.20;99.90;;;;;;5088227;28;20063;-81
2022/09/20 09:06:23;;;;;;;3.88;0.47;;;12.50;99.90;;;;;;5070033;28;20051;-81
2022/09/20 09:08:52;;;;;;;4.60;0.68;;;12.50;99.90;;;;;;5085327;28;20106;-84
2022/09/20 09:11:19;;;;;;;6.68;1.02;;;12.60;99.90;;;;;;5083171;28;20036;-81
2022/09/20 09:14:46;;;;;;;8.65;0.80;;;12.60;99.90;;;;;;5068978;28;20048;-82
2022/09/20 09:16:53;;;;;;;6.47;0.70;;;12.60;99.90;;;;;;5088409;28;20048;-81
2022/09/20 09:19:30;;;;;;;16.85;10.63;;;12.70;99.90;;;;;;5070418;28;20123;-80
2022/09/20 09:22:01;;;;;;;17.55;8.25;;;13.10;99.90;;;;;;5070191;28;20089;-82
2022/09/20 09:24:27;;;;;;;6.85;2.00;;;14.30;99.90;;;;;;5071063;28;20036;-80
2022/09/20 09:27:18;;;;;;;4.90;1.25;;;12.70;99.90;;;;;;5079427;28;20052;-84
2022/09/20 09:29:52;;;;;;;3.55;0.73;;;12.80;99.90;;;;;;5091024;28;20067;-83
2022/09/20 09:32:31;;;;;;;7.00;0.70;;;13.40;99.90;;;;;;5079776;28;20028;-81
2022/09/20 09:35:28;;;;;;;6.15;0.95;;;12.80;99.90;;;;;;5071794;28;20410;-82
2022/09/20 09:37:56;;;;;;;5.25;0.40;;;12.80;99.90;;;;;;5090138;28;20074;-81
2022/09/20 09:40:23;;;;;;;4.53;0.77;;;12.90;99.90;;;;;;5066447;28;20514;-81
2022/09/20 09:42:52;;;;;;;4.20;0.80;;;13.00;99.90;;;;;;5084373;28;20492;-83
2022/09/20 09:45:37;;;;;;;3.38;0.43;;;13.20;99.90;;;;;;5089170;28;20047;-81
2022/09/20 09:48:29;;;;;;;5.30;0.57;;;13.10;99.90;;;;;;5072259;28;20039;-83
2022/09/20 09:51:14;;;;;;;7.57;1.05;;;13.10;99.90;;;;;;5068333;28;20036;-83
2022/09/20 09:53:41;;;;;;;5.55;0.50;;;13.10;99.90;;;;;;5081101;28;20044;-82
2022/09/20 09:56:26;;;;;;;7.07;1.08;;;13.20;99.90;;;;;;5071622;28;20036;-81
2022/09/20 09:59:19;;;;;;;2.83;0.60;;;13.20;99.90;;;;;;5066908;28;20048;-83
2022/09/20 10:02:12;;;;;;;10.85;1.65;;;13.40;99.90;;;;;;5077098;28;20071;-83
2022/09/20 10:04:54;;;;;;;8.52;2.20;;;13.20;99.90;;;;;;5086578;28;20132;-81
2022/09/20 10:07:28;;;;;;;10.52;2.85;;;13.30;99.90;;;;;;5055390;28;20486;-82
2022/09/20 10:10:11;;;;;;;3.33;1.07;;;13.30;99.90;;;;;;5087923;28;20063;-81
2022/09/20 10:13:07;;;;;;;6.20;0.60;;;14.40;99.90;;;;;;5082994;28;20312;-80
2022/09/20 10:15:59;;;;;;;9.25;0.60;;;13.40;99.90;;;;;;5085028;28;20453;-82
2022/09/20 10:18:40;;;;;;;5.55;0.98;;;13.50;99.90;;;;;;5055049;28;20055;-81
2022/09/20 10:21:37;;;;;;;7.93;0.68;;;13.50;99.90;;;;;;5070100;28;20044;-81
2022/09/20 10:24:16;;;;;;;3.72;0.70;;;13.50;99.90;;;;;;5078861;28;20059;-81
2022/09/20 10:27:00;;;;;;;12.23;6.13;;;13.60;99.90;;;;;;5082561;28;20119;-81
2022/09/20 10:30:03;;;;;;;11.80;6.30;;;13.60;99.90;;;;;;5075303;28;20051;-81
2022/09/20 10:33:19;;;;;;;6.97;1.55;;;13.70;99.90;;;;;;5085015;28;20051;-83
2022/09/20 10:35:56;;;;;;;5.22;0.93;;;13.70;99.90;;;;;;4997689;28;20049;-82
2022/09/20 10:38:52;;;;;;;4.03;0.68;;;13.70;99.90;;;;;;4973353;28;20798;-81
2022/09/20 10:44:49;;;;;;;4.45;0.77;;;13.80;99.90;;;;;;5066827;28;20040;-80
2022/09/20 10:47:18;;;;;;;5.00;0.68;;;13.90;99.90;;;;;;5082702;28;20510;-84
2022/09/20 10:50:00;;;;;;;5.47;0.85;;;14.00;99.90;;;;;;5066639;28;20056;-81
2022/09/20 10:52:48;;;;;;;6.68;0.57;;;14.10;99.90;;;;;;5080337;28;20036;-83
2022/09/20 10:55:40;;;;;;;5.25;0.50;;;14.20;99.90;;;;;;5084282;28;20040;-84
2022/09/20 10:58:20;;;;;;;6.03;1.35;;;14.20;99.90;;;;;;5049565;28;20051;-81
2022/09/20 11:01:06;;;;;;;1.85;0.50;;;14.30;99.90;;;;;;5087923;28;20048;-81
2022/09/20 11:04:08;;;;;;;2.75;0.60;;;14.50;99.90;;;;;;5078413;28;20056;-81
2022/09/20 11:06:39;;;;;;;6.40;0.98;;;14.60;99.90;;;;;;5065781;28;20597;-81
2022/09/20 11:09:09;;;;;;;11.32;1.25;;;14.70;99.90;;;;;;5079460;28;20074;-81
2022/09/20 11:11:45;;;;;;;4.18;0.60;;;15.40;99.90;;;;;;5068153;28;20055;-81
2022/09/20 11:14:22;;;;;;;6.10;0.60;;;14.80;99.90;;;;;;5081701;28;20362;-81
2022/09/20 11:17:23;;;;;;;5.53;0.68;;;15.60;99.90;;;;;;5087529;28;20131;-81
2022/09/20 11:20:01;;;;;;;5.43;0.77;;;15.00;99.90;;;;;;5085474;28;20123;-81
2022/09/20 11:22:48;;;;;;;4.95;0.45;;;14.90;99.90;;;;;;5080608;28;20115;-81
2022/09/20 11:25:22;;;;;;;2.92;0.47;;;14.80;99.90;;;;;;5087186;28;20404;-82
2022/09/20 11:28:09;;;;;;;9.45;0.82;;;14.70;99.90;;;;;;5108846;27;20131;-81
2022/09/20 11:30:51;;;;;;;4.78;0.57;;;14.60;99.90;;;;;;5114714;27;20115;-82
2022/09/20 11:33:41;;;;;;;9.10;1.20;;;14.60;99.90;;;;;;5082494;28;20604;-81
2022/09/20 11:36:14;;;;;;;2.97;0.75;;;14.60;99.90;;;;;;5086980;28;20052;-82
2022/09/20 11:38:48;;;;;;;5.67;1.40;;;14.60;99.90;;;;;;5080673;28;20033;-81
2022/09/20 11:41:18;;;;;;;4.22;0.63;;;14.60;99.90;;;;;;5081724;28;20075;-81
2022/09/20 11:43:45;;;;;;;7.72;0.73;;;14.50;99.90;;;;;;5085771;28;20215;-81
2022/09/20 11:46:18;;;;;;;9.70;4.25;;;15.60;99.90;;;;;;5083824;28;20048;-82
2022/09/20 11:48:59;;;;;;;4.18;1.77;;;14.60;99.90;;;;;;5082776;28;20095;-81
2022/09/20 11:51:34;;;;;;;3.78;0.77;;;14.80;99.90;;;;;;5076203;28;20043;-81
2022/09/20 11:54:44;;;;;;;7.68;0.40;;;15.10;99.90;;;;;;5117934;27;20036;-81
2022/09/20 11:57:15;;;;;;;4.30;0.40;;;15.30;99.90;;;;;;5057431;28;20515;-81
2022/09/20 11:59:47;;;;;;;3.17;0.50;;;16.40;99.90;;;;;;5086542;28;20052;-81
2022/09/20 12:02:35;;;;;;;4.20;0.40;;;15.70;99.90;;;;;;5080287;28;20765;-81
2022/09/20 12:05:04;;;;;;;2.72;0.30;;;15.70;99.90;;;;;;5084948;28;20514;-80
2022/09/20 12:07:39;;;;;;;4.20;0.43;;;16.50;99.90;;;;;;5086778;28;20116;-82
2022/09/20 12:10:27;;;;;;;3.50;0.40;;;17.50;99.90;;;;;;5086848;28;20052;-81
2022/09/20 12:13:23;;;;;;;5.45;0.65;;;17.00;99.90;;;;;;5081314;28;20123;-81
2022/09/20 12:16:04;;;;;;;3.58;0.32;;;16.20;99.90;;;;;;5083901;28;20060;-81
2022/09/20 12:18:32;;;;;;;3.58;0.47;;;16.10;99.90;;;;;;5079280;28;20538;-82
2022/09/20 12:21:16;;;;;;;2.22;0.35;;;16.00;99.90;;;;;;5083692;28;20063;-81
2022/09/20 12:23:44;;;;;;;4.03;0.70;;;15.80;99.90;;;;;;5115165;28;20044;-82
2022/09/20 12:26:21;;;;;;;1.48;0.30;;;15.70;99.90;;;;;;5085828;28;20846;-81
2022/09/20 12:28:53;;;;;;;4.22;0.55;;;15.50;99.90;;;;;;5082467;28;20440;-81
2022/09/20 12:31:24;;;;;;;2.33;0.38;;;15.40;99.90;;;;;;5083471;28;20036;-81
2022/09/20 12:34:08;;;;;;;6.80;0.90;;;15.30;99.90;;;;;;5086539;28;20458;-82
2022/09/20 12:36:41;;;;;;;2.38;0.43;;;16.30;99.90;;;;;;5082307;28;20341;-80
2022/09/20 12:39:10;;;;;;;2.20;0.65;;;15.30;99.90;;;;;;5090599;28;20486;-81
2022/09/20 12:42:21;;;;;;;5.00;0.40;;;16.30;99.90;;;;;;5089117;28;20039;-82
2022/09/20 12:44:50;;;;;;;2.38;0.17;;;15.60;99.90;;;;;;5070841;28;20539;-80
2022/09/20 12:47:25;;;;;;;2.65;0.30;;;15.60;99.90;;;;;;5117296;27;20399;-81
2022/09/20 12:52:56;;;;;;;8.82;0.93;;;15.40;99.90;;;;;;5083879;28;20479;-81
2022/09/20 12:55:28;;;;;;;3.73;0.73;;;15.30;99.90;;;;;;5090265;28;20040;-81
2022/09/20 12:58:31;;;;;;;1.60;0.30;;;16.40;99.90;;;;;;5081289;28;20056;-81
2022/09/20 13:01:02;;;;;;;3.53;0.63;;;15.50;99.90;;;;;;5045208;28;20175;-85
2022/09/20 13:03:35;;;;;;;6.68;0.68;;;15.40;99.90;;;;;;5085187;28;20048;-81
2022/09/20 13:06:04;;;;;;;4.40;0.70;;;15.50;99.90;;;;;;5078734;28;20056;-85
2022/09/20 13:08:50;;;;;;;1.77;0.20;;;15.70;99.90;;;;;;5081650;28;20729;-84
2022/09/20 13:11:40;;;;;;;2.83;0.20;;;15.90;99.90;;;;;;5086673;28;20542;-83
2022/09/20 13:14:25;;;;;;;2.50;0.30;;;16.10;99.90;;;;;;5090775;28;20040;-83
2022/09/20 13:17:00;;;;;;;3.30;0.35;;;16.20;99.90;;;;;;5086142;28;20078;-82
2022/09/20 13:19:37;;;;;;;3.20;0.38;;;16.30;99.90;;;;;;5088932;28;20123;-83
2022/09/20 13:22:25;;;;;;;3.70;0.40;;;16.40;99.90;;;;;;5085492;28;20032;-83
2022/09/20 13:25:01;;;;;;;3.58;0.20;;;16.40;99.90;;;;;;5084529;28;20040;-83
2022/09/20 13:27:49;;;;;;;4.45;0.40;;;16.70;99.90;;;;;;5079487;28;20048;-81
2022/09/20 13:30:20;;;;;;;5.95;3.00;;;17.60;99.90;;;;;;5087629;28;20127;-84
2022/09/20 13:32:46;;;;;;;3.72;1.58;;;16.50;99.90;;;;;;5087623;28;20067;-84
2022/09/20 13:35:14;;;;;;;1.23;0.45;;;16.60;99.90;;;;;;5083663;28;20247;-83
2022/09/20 13:37:57;;;;;;;4.93;0.65;;;16.70;99.90;;;;;;5088435;28;20105;-84
2022/09/20 13:40:41;;;;;;;3.58;0.85;;;17.50;99.90;;;;;;5062242;28;20380;-84
2022/09/20 13:43:43;;;;;;;5.22;0.77;;;16.40;99.90;;;;;;5082837;28;20044;-83
2022/09/20 13:46:32;;;;;;;5.82;0.90;;;16.30;99.90;;;;;;5110012;27;20139;-83
2022/09/20 13:49:16;;;;;;;4.32;0.82;;;16.00;99.90;;;;;;5060776;28;20080;-83
2022/09/20 13:51:42;;;;;;;3.85;0.55;;;16.40;99.90;;;;;;5081480;28;20054;-82
2022/09/20 13:54:29;;;;;;;3.05;0.47;;;16.80;99.90;;;;;;5061943;28;20127;-82
2022/09/20 13:57:01;;;;;;;5.13;0.65;;;16.40;99.90;;;;;;5085277;28;20422;-84
2022/09/20 13:59:33;;;;;;;4.70;0.68;;;16.50;99.90;;;;;;5081473;28;20029;-83
2022/09/20 14:01:59;;;;;;;3.30;0.57;;;16.50;99.90;;;;;;5079813;28;20044;-80
2022/09/20 14:04:28;;;;;;;4.88;0.40;;;17.40;99.90;;;;;;5080873;28;20109;-78
2022/09/20 14:06:56;;;;;;;2.85;0.47;;;16.60;99.90;;;;;;5060423;28;20048;-78